Aérodrome :
LOGIN :

S'inscrire | Disclaimer

   EN    FR    IT 

 










Légende :    VFR   VFR Marginal   IFR   IFR Intensif   IFR Très Intensif
Visi : 
Plafond : 
>= 8 km
>= 3000ft
5 à 8 km
1000 à 3000 ft
1500m à 5 km
500 à 1000 ft
800 à 1500m
200 à 500 ft
< 800m
< 200 ft
Symboles :   Orages  Brouillard  Fortes neiges  Fortes précipitations  Vent > 20 kt
SIGMETs :   Divers  Orages  Givrage  Turbulence  Onde Orograph.  Cendres Volcan.






- Altitude de l'aérodrome : 675 ft
- Code IATA : RZE


EPRZ - Rzeszow-Jasionka

DERNIER METAR :
  • 141330Z 02003KT 9999 BKN013 08/06 Q1013

METARs EXPIRÉS :
  • 141230Z 06003KT 020V100 9999 BKN015 08/05 Q1013
  • 141200Z VRB02KT 9999 BKN018 08/05 Q1013
  • 141130Z VRB02KT 9999 BKN013 BKN020 08/05 Q1013
  • 141100Z VRB02KT 9999 SCT012 BKN022 08/05 Q1013

TAF TAF EPRZ
Valide du 14 à 12h jusqu'au 15 à 12h UTC


141130Z 1412/1512 03005KT 9999 BKN020
BECMG 1412/1415 BKN012
BECMG 1415/1418 4000 BR BKN007
TEMPO 1418/1512 1400 -RA BR BKN004
PROB30
TEMPO 1422/1508 0400 FG OVC002



MET'MAP, la Météo Aéronautique d'un coup d'oeil ! - Copyright ORBIFLY Décembre 2007 - Disclaimer

ORBIFLY MET'MAP TEAM :

Programmation & Développement : Alexandra Zaïnal
Conception & Développement : Baudouin d'Aumeries
Co-Programmation & Développement : Marc-Olivier Méhu
Soutien technique & logistique : Manuel Goepfert

Contact : metmap@orbifly.com




SOURCES & CREDITS :

   NOAA